createdAt,value
2018-05-15T00:02:18.951Z,16.10
2018-05-15T00:04:47.204Z,16.10
2018-05-15T00:07:15.482Z,16.00
2018-05-15T00:09:43.731Z,15.90
2018-05-15T00:12:12.003Z,15.80
2018-05-15T00:14:40.266Z,15.70
2018-05-15T00:17:08.540Z,15.60
2018-05-15T00:19:36.793Z,15.70
2018-05-15T00:22:05.065Z,15.60
2018-05-15T00:24:33.332Z,15.60
2018-05-15T00:27:01.587Z,15.70
2018-05-15T00:29:29.822Z,15.70
2018-05-15T00:31:58.074Z,15.80
2018-05-15T00:34:26.333Z,15.80
2018-05-15T00:36:54.590Z,15.70
2018-05-15T00:39:22.872Z,15.80
2018-05-15T00:41:51.155Z,15.60
2018-05-15T00:44:19.533Z,15.50
2018-05-15T00:46:47.736Z,15.40
2018-05-15T00:49:16.711Z,15.30
2018-05-15T00:51:44.986Z,15.30
2018-05-15T00:54:13.252Z,15.40
2018-05-15T00:56:41.500Z,15.40
2018-05-15T00:59:10.531Z,15.30
2018-05-15T01:01:38.784Z,15.30
2018-05-15T01:04:07.109Z,15.20
2018-05-15T01:06:35.360Z,15.10
2018-05-15T01:09:03.604Z,14.90
2018-05-15T01:11:32.649Z,14.90
2018-05-15T01:14:00.920Z,14.90
2018-05-15T01:16:29.166Z,14.80
2018-05-15T01:18:57.417Z,14.70
2018-05-15T01:21:26.445Z,14.50
2018-05-15T01:23:54.716Z,14.40
2018-05-15T01:26:22.974Z,14.40
2018-05-15T01:28:52.001Z,14.30
2018-05-15T01:31:20.244Z,14.30
2018-05-15T01:33:49.286Z,14.20
2018-05-15T01:36:17.545Z,14.20
2018-05-15T01:38:45.870Z,14.00
2018-05-15T01:41:15.639Z,13.90
2018-05-15T01:43:43.902Z,13.90
2018-05-15T01:46:12.148Z,13.90
2018-05-15T01:48:41.183Z,13.90
2018-05-15T01:51:09.432Z,13.90
2018-05-15T01:53:37.686Z,13.80
2018-05-15T01:56:06.716Z,13.30
2018-05-15T01:58:34.998Z,13.30
2018-05-15T02:01:03.259Z,13.30
2018-05-15T02:03:31.520Z,13.40
2018-05-15T02:05:59.803Z,13.10
2018-05-15T02:08:28.061Z,13.00
2018-05-15T02:10:57.105Z,13.00
2018-05-15T02:13:25.359Z,13.00
2018-05-15T02:15:53.632Z,12.80
2018-05-15T02:18:21.890Z,12.80
2018-05-15T02:20:50.905Z,12.80
2018-05-15T02:23:19.172Z,12.80
2018-05-15T02:25:47.449Z,13.00
2018-05-15T02:28:15.728Z,13.10
2018-05-15T02:30:43.972Z,13.30
2018-05-15T02:33:12.209Z,13.30
2018-05-15T02:35:40.459Z,13.30
2018-05-15T02:38:08.715Z,13.30
2018-05-15T02:40:37.734Z,13.30
2018-05-15T02:43:05.999Z,13.30
2018-05-15T02:45:34.250Z,13.20
2018-05-15T02:48:03.267Z,13.10
2018-05-15T02:50:31.511Z,13.10
2018-05-15T02:52:59.786Z,13.20
2018-05-15T02:55:28.040Z,13.20
2018-05-15T02:57:56.354Z,13.20
2018-05-15T03:00:24.593Z,13.20
2018-05-15T03:02:52.864Z,13.20
2018-05-15T03:05:21.162Z,13.20
2018-05-15T03:07:49.435Z,13.30
2018-05-15T03:10:17.699Z,13.20
2018-05-15T03:12:45.985Z,13.00
2018-05-15T03:15:15.008Z,13.10
2018-05-15T03:17:44.042Z,13.00
2018-05-15T03:20:13.528Z,13.00
2018-05-15T03:22:41.784Z,13.00
2018-05-15T03:25:10.052Z,13.00
2018-05-15T03:27:39.068Z,12.90
2018-05-15T03:30:07.318Z,12.90
2018-05-15T03:32:36.362Z,12.90
2018-05-15T03:35:04.629Z,12.90
2018-05-15T03:37:32.864Z,12.80
2018-05-15T03:40:01.878Z,12.80
2018-05-15T03:42:30.145Z,12.80
2018-05-15T03:44:58.421Z,12.90
2018-05-15T03:47:26.689Z,12.90
2018-05-15T03:49:55.792Z,12.60
2018-05-15T03:52:24.072Z,12.60
2018-05-15T03:54:53.090Z,12.60
2018-05-15T03:57:21.334Z,12.60
2018-05-15T03:59:49.602Z,12.70
2018-05-15T04:02:30.750Z,12.70
2018-05-15T04:05:10.970Z,12.70
2018-05-15T04:10:45.237Z,13.10
2018-05-15T04:13:13.679Z,13.20
2018-05-15T04:15:41.955Z,13.30
2018-05-15T04:18:10.211Z,13.40
2018-05-15T04:20:39.238Z,13.40
2018-05-15T04:23:07.490Z,13.40
2018-05-15T04:25:35.742Z,13.40
2018-05-15T04:28:04.876Z,13.50
2018-05-15T04:30:33.091Z,13.50
2018-05-15T04:33:01.336Z,13.70
2018-05-15T04:35:29.644Z,13.80
2018-05-15T04:37:57.956Z,13.80
2018-05-15T04:40:26.976Z,13.10
2018-05-15T04:42:55.381Z,13.00
2018-05-15T04:45:23.660Z,12.80
2018-05-15T04:47:51.906Z,12.80
2018-05-15T04:50:20.944Z,12.80
2018-05-15T04:52:49.267Z,12.80
2018-05-15T04:55:18.299Z,12.90
2018-05-15T04:57:46.587Z,12.80
2018-05-15T05:00:14.884Z,13.00
2018-05-15T05:02:43.191Z,13.20
2018-05-15T05:05:11.445Z,13.50
2018-05-15T05:07:40.473Z,13.90
2018-05-15T05:10:08.736Z,13.90
2018-05-15T05:12:37.047Z,13.70
2018-05-15T05:15:05.301Z,13.70
2018-05-15T05:17:33.560Z,13.30
2018-05-15T05:20:02.613Z,13.50
2018-05-15T05:22:31.701Z,13.50
2018-05-15T05:25:00.754Z,13.40
2018-05-15T05:27:29.785Z,13.50
2018-05-15T05:29:58.089Z,13.50
2018-05-15T05:32:27.121Z,13.30
2018-05-15T05:34:55.398Z,13.30
2018-05-15T05:37:23.679Z,13.20
2018-05-15T05:39:51.948Z,13.10
2018-05-15T05:42:20.198Z,13.20
2018-05-15T05:44:49.282Z,13.30
2018-05-15T05:47:17.584Z,13.20
2018-05-15T05:49:46.621Z,13.80
2018-05-15T05:52:14.870Z,13.70
2018-05-15T05:54:43.122Z,13.80
2018-05-15T05:57:12.143Z,13.50
2018-05-15T05:59:40.582Z,13.50
2018-05-15T06:02:08.883Z,13.40
2018-05-15T06:04:37.967Z,13.60
2018-05-15T06:07:06.987Z,13.50
2018-05-15T06:09:35.257Z,13.50
2018-05-15T06:12:03.514Z,13.70
2018-05-15T06:14:31.771Z,13.90
2018-05-15T06:17:00.785Z,14.50
2018-05-15T06:19:29.030Z,14.50
2018-05-15T06:21:57.275Z,14.50
2018-05-15T06:24:25.575Z,14.60
2018-05-15T06:26:54.666Z,15.10
2018-05-15T06:29:22.936Z,15.40
2018-05-15T06:31:51.203Z,15.50
2018-05-15T06:34:19.496Z,15.70
2018-05-15T06:36:47.758Z,15.50
2018-05-15T06:39:16.021Z,15.90
2018-05-15T06:41:44.277Z,16.10
2018-05-15T06:44:12.569Z,15.70
2018-05-15T06:46:40.827Z,15.60
2018-05-15T06:49:09.108Z,15.80
2018-05-15T06:51:37.517Z,15.70
2018-05-15T06:54:05.816Z,15.80
2018-05-15T06:56:34.068Z,16.10
2018-05-15T06:59:03.275Z,16.60
2018-05-15T07:01:31.533Z,16.60
2018-05-15T07:03:59.777Z,17.40
2018-05-15T07:06:28.057Z,17.50
2018-05-15T07:08:57.139Z,18.60
2018-05-15T07:11:26.174Z,19.40
2018-05-15T07:13:54.439Z,19.40
2018-05-15T07:16:22.712Z,18.80
2018-05-15T07:18:50.999Z,19.30
2018-05-15T07:21:19.270Z,19.30
2018-05-15T07:23:47.667Z,19.20
2018-05-15T07:26:15.916Z,18.50
2018-05-15T07:28:44.181Z,18.70
2018-05-15T07:31:12.449Z,19.40
2018-05-15T07:33:41.438Z,18.70
2018-05-15T07:36:10.459Z,19.50
2018-05-15T07:38:38.736Z,19.50
2018-05-15T07:41:06.992Z,19.10
2018-05-15T07:43:35.251Z,20.20
2018-05-15T07:46:04.502Z,22.00
2018-05-15T07:48:32.753Z,21.90
2018-05-15T07:51:01.014Z,21.80
2018-05-15T07:53:30.032Z,21.00
2018-05-15T07:55:58.283Z,21.00
2018-05-15T07:58:27.662Z,20.70
2018-05-15T08:00:55.922Z,20.60
2018-05-15T08:03:24.262Z,20.90
2018-05-15T08:05:52.513Z,20.90
2018-05-15T08:08:21.545Z,21.30
2018-05-15T08:10:49.832Z,21.30
2018-05-15T08:13:18.029Z,21.60
2018-05-15T08:15:47.094Z,22.10
2018-05-15T08:18:15.888Z,22.10
2018-05-15T08:20:44.139Z,21.90
2018-05-15T08:23:12.392Z,22.20
2018-05-15T08:25:41.430Z,21.50
2018-05-15T08:28:09.675Z,21.50
2018-05-15T08:30:37.953Z,21.50
2018-05-15T08:33:06.198Z,21.60
2018-05-15T08:35:35.228Z,21.40
2018-05-15T08:38:03.536Z,21.40
2018-05-15T08:40:31.781Z,21.70
2018-05-15T08:43:00.035Z,21.80
2018-05-15T08:45:28.384Z,21.90
2018-05-15T08:47:56.562Z,21.80
2018-05-15T08:50:25.576Z,22.70
2018-05-15T08:52:53.829Z,22.70
2018-05-15T08:55:22.099Z,23.10
2018-05-15T08:57:51.853Z,22.10
2018-05-15T09:00:20.122Z,22.10
2018-05-15T09:02:48.387Z,22.60
2018-05-15T09:05:17.429Z,23.40
2018-05-15T09:07:45.684Z,23.40
2018-05-15T09:10:13.947Z,22.60
2018-05-15T09:12:42.211Z,22.60
2018-05-15T09:15:10.554Z,22.70
2018-05-15T09:17:38.817Z,22.60
2018-05-15T09:20:07.097Z,22.40
2018-05-15T09:22:35.428Z,22.70
2018-05-15T09:25:03.668Z,22.70
2018-05-15T09:27:31.953Z,23.00
2018-05-15T09:30:01.005Z,22.10
2018-05-15T09:32:29.245Z,22.00
2018-05-15T09:34:57.555Z,22.60
2018-05-15T09:37:25.824Z,22.50
2018-05-15T09:39:54.529Z,22.40
2018-05-15T09:42:22.848Z,21.30
2018-05-15T09:44:51.113Z,21.00
2018-05-15T09:47:20.144Z,22.50
2018-05-15T09:49:48.386Z,22.50
2018-05-15T09:52:18.425Z,23.60
2018-05-15T09:54:46.731Z,23.60
2018-05-15T09:57:14.996Z,23.10
2018-05-15T09:59:43.436Z,21.90
2018-05-15T10:02:12.539Z,22.10
2018-05-15T10:04:40.802Z,22.00
2018-05-15T10:07:09.844Z,23.10
2018-05-15T10:09:38.100Z,23.10
2018-05-15T10:12:06.414Z,22.40
2018-05-15T10:14:35.643Z,23.30
2018-05-15T10:17:04.689Z,24.00
2018-05-15T10:19:32.962Z,24.00
2018-05-15T10:22:01.846Z,24.20
2018-05-15T10:24:30.218Z,23.80
2018-05-15T10:27:00.077Z,24.10
2018-05-15T10:29:28.328Z,22.50
2018-05-15T10:31:56.737Z,22.40
2018-05-15T10:34:25.758Z,23.80
2018-05-15T10:36:54.006Z,23.70
2018-05-15T10:39:22.265Z,23.40
2018-05-15T10:41:50.528Z,24.10
2018-05-15T10:44:18.764Z,24.40
2018-05-15T10:46:47.046Z,24.50
2018-05-15T10:49:15.339Z,24.50
2018-05-15T10:51:43.595Z,24.60
2018-05-15T10:54:11.915Z,23.40
2018-05-15T10:56:40.204Z,23.60
2018-05-15T10:59:08.465Z,23.90
2018-05-15T11:01:36.756Z,23.30
2018-05-15T11:04:05.450Z,23.30
2018-05-15T11:06:34.548Z,23.50
2018-05-15T11:09:03.579Z,23.40
2018-05-15T11:11:31.845Z,23.40
2018-05-15T11:14:00.132Z,22.80
2018-05-15T11:16:28.389Z,22.60
2018-05-15T11:18:56.670Z,23.00
2018-05-15T11:21:36.826Z,22.80
2018-05-15T11:24:30.909Z,22.30
2018-05-15T11:26:59.125Z,22.30
2018-05-15T11:29:27.397Z,22.30
2018-05-15T11:31:55.690Z,23.60
2018-05-15T11:34:23.978Z,23.20
2018-05-15T11:36:52.787Z,23.10
2018-05-15T11:39:21.808Z,21.90
2018-05-15T11:41:50.173Z,21.80
2018-05-15T11:44:18.445Z,22.30
2018-05-15T11:46:47.477Z,23.70
2018-05-15T11:49:16.257Z,23.70
2018-05-15T11:51:44.767Z,24.30
2018-05-15T11:54:12.925Z,23.40
2018-05-15T11:56:41.198Z,23.40
2018-05-15T11:59:09.470Z,23.80
2018-05-15T12:01:37.750Z,23.50
2018-05-15T12:04:06.051Z,22.40
2018-05-15T12:06:34.312Z,22.40
2018-05-15T12:09:02.728Z,22.60
2018-05-15T12:11:30.965Z,22.40
2018-05-15T12:14:00.190Z,21.90
2018-05-15T12:16:28.537Z,22.10
2018-05-15T12:18:56.784Z,21.60
2018-05-15T12:21:26.901Z,22.00
2018-05-15T12:23:55.185Z,21.80
2018-05-15T12:26:23.442Z,21.80
2018-05-15T12:28:51.708Z,21.80
2018-05-15T12:31:20.728Z,21.90
2018-05-15T12:33:49.008Z,21.90
2018-05-15T12:36:17.279Z,22.30
2018-05-15T12:38:47.507Z,22.20
2018-05-15T12:41:15.829Z,22.10
2018-05-15T12:43:44.091Z,22.10
2018-05-15T12:46:14.845Z,22.40
2018-05-15T12:48:43.118Z,22.50
2018-05-15T12:51:12.220Z,22.50
2018-05-15T12:53:41.251Z,22.40
2018-05-15T12:56:09.511Z,22.40
2018-05-15T12:58:37.851Z,22.70
2018-05-15T13:01:06.106Z,22.20
2018-05-15T13:03:34.546Z,22.10
2018-05-15T13:06:02.860Z,22.00
2018-05-15T13:08:31.153Z,22.00
2018-05-15T13:10:59.421Z,21.30
2018-05-15T13:13:27.692Z,21.60
2018-05-15T13:15:55.986Z,22.20
2018-05-15T13:18:24.279Z,21.60
2018-05-15T13:20:52.534Z,21.30
2018-05-15T13:23:22.315Z,23.00
2018-05-15T13:25:50.591Z,23.00
2018-05-15T13:28:19.620Z,24.20
2018-05-15T13:30:47.889Z,24.20
2018-05-15T13:33:16.161Z,23.50
2018-05-15T13:35:44.430Z,23.70
2018-05-15T13:38:12.714Z,24.20
2018-05-15T13:40:40.977Z,24.40
2018-05-15T13:43:09.232Z,24.90
2018-05-15T13:45:37.545Z,24.80
2018-05-15T13:48:05.827Z,23.70
2018-05-15T13:50:34.919Z,24.50
2018-05-15T13:53:03.921Z,24.20
2018-05-15T13:55:32.974Z,23.70
2018-05-15T13:58:01.220Z,23.70
2018-05-15T14:00:29.507Z,23.50
2018-05-15T14:02:57.775Z,23.90
2018-05-15T14:05:26.099Z,23.40
2018-05-15T14:07:54.435Z,23.50
2018-05-15T14:10:23.444Z,22.90
2018-05-15T14:12:51.729Z,22.90
2018-05-15T14:15:20.018Z,22.50
2018-05-15T14:17:48.285Z,22.40
2018-05-15T14:20:16.576Z,22.00
2018-05-15T14:22:44.844Z,22.30
2018-05-15T14:25:13.162Z,22.30
2018-05-15T14:27:41.544Z,22.00
2018-05-15T14:30:09.911Z,22.30
2018-05-15T14:32:38.263Z,22.50
2018-05-15T14:35:06.538Z,22.30
2018-05-15T14:37:34.797Z,22.50
2018-05-15T14:40:03.058Z,22.30
2018-05-15T14:42:43.718Z,22.20
2018-05-15T14:45:16.852Z,21.90
2018-05-15T14:47:46.155Z,23.60
2018-05-15T14:50:14.458Z,23.60
2018-05-15T14:52:43.491Z,23.10
2018-05-15T14:55:12.070Z,23.10
2018-05-15T14:57:40.341Z,23.20
2018-05-15T15:00:08.588Z,23.70
2018-05-15T15:02:37.608Z,23.20
2018-05-15T15:05:05.884Z,23.10
2018-05-15T15:07:34.156Z,22.70
2018-05-15T15:10:02.476Z,22.60
2018-05-15T15:12:30.745Z,22.80
2018-05-15T15:14:59.025Z,22.50
2018-05-15T15:17:27.411Z,22.80
2018-05-15T15:19:55.685Z,23.30
2018-05-15T15:22:23.963Z,22.70
2018-05-15T15:24:53.019Z,22.60
2018-05-15T15:27:21.331Z,22.30
2018-05-15T15:29:49.584Z,22.30
2018-05-15T15:32:17.939Z,22.20
2018-05-15T15:34:46.779Z,22.60
2018-05-15T15:37:15.068Z,22.30
2018-05-15T15:39:44.596Z,22.50
2018-05-15T15:42:16.516Z,22.40
2018-05-15T15:44:45.710Z,22.70
2018-05-15T15:47:14.032Z,22.60
2018-05-15T15:49:43.074Z,22.40
2018-05-15T15:52:11.365Z,22.40
2018-05-15T15:54:39.628Z,22.60
2018-05-15T15:57:07.884Z,22.90
2018-05-15T15:59:36.137Z,22.40
2018-05-15T16:02:05.157Z,22.50
2018-05-15T16:04:33.491Z,22.40
2018-05-15T16:07:02.501Z,22.90
2018-05-15T16:09:32.168Z,22.70
2018-05-15T16:12:00.427Z,22.70
2018-05-15T16:14:28.712Z,22.40
2018-05-15T16:16:56.955Z,22.60
2018-05-15T16:19:25.233Z,22.50
2018-05-15T16:21:53.530Z,21.90
2018-05-15T16:24:21.857Z,22.30
2018-05-15T16:26:50.867Z,22.20
2018-05-15T16:29:19.145Z,22.20
2018-05-15T16:31:47.409Z,22.00
2018-05-15T16:34:16.457Z,22.10
2018-05-15T16:36:44.714Z,22.10
2018-05-15T16:39:12.972Z,21.90
2018-05-15T16:41:41.242Z,21.90
2018-05-15T16:44:09.526Z,22.00
2018-05-15T16:46:37.807Z,21.70
2018-05-15T16:49:06.072Z,21.70
2018-05-15T16:51:34.334Z,21.70
2018-05-15T16:54:03.401Z,21.60
2018-05-15T16:56:31.656Z,21.50
2018-05-15T16:58:59.913Z,21.60
2018-05-15T17:01:28.162Z,21.40
2018-05-15T17:03:56.443Z,21.20
2018-05-15T17:06:24.886Z,21.10
2018-05-15T17:08:53.214Z,21.10
2018-05-15T17:11:21.478Z,21.20
2018-05-15T17:13:49.795Z,21.10
2018-05-15T17:16:18.040Z,21.00
2018-05-15T17:18:46.309Z,21.00
2018-05-15T17:21:14.584Z,21.10
2018-05-15T17:23:42.845Z,21.00
2018-05-15T17:26:11.882Z,21.10
2018-05-15T17:28:40.146Z,21.00
2018-05-15T17:31:08.699Z,20.90
2018-05-15T17:33:37.036Z,20.90
2018-05-15T17:36:05.404Z,20.90
2018-05-15T17:38:33.742Z,20.90
2018-05-15T17:41:02.767Z,20.80
2018-05-15T17:43:31.019Z,20.70
2018-05-15T17:45:59.388Z,20.70
2018-05-15T17:48:28.443Z,19.50
2018-05-15T17:50:56.756Z,19.40
2018-05-15T17:53:25.015Z,18.80
2018-05-15T17:55:54.050Z,18.50
2018-05-15T17:58:22.313Z,18.50
2018-05-15T18:00:50.565Z,18.40
2018-05-15T18:03:18.862Z,18.40
2018-05-15T18:05:47.874Z,18.30
2018-05-15T18:08:16.192Z,18.30
2018-05-15T18:10:44.448Z,18.10
2018-05-15T18:13:12.732Z,18.10
2018-05-15T18:15:41.018Z,18.00
2018-05-15T18:18:09.399Z,18.10
2018-05-15T18:20:37.752Z,17.90
2018-05-15T18:23:05.999Z,17.80
2018-05-15T18:25:34.257Z,17.50
2018-05-15T18:28:03.294Z,17.50
2018-05-15T18:30:31.590Z,17.50
2018-05-15T18:32:59.861Z,17.60
2018-05-15T18:35:28.111Z,17.40
2018-05-15T18:37:56.371Z,17.20
2018-05-15T18:40:24.780Z,17.20
2018-05-15T18:42:53.176Z,17.10
2018-05-15T18:45:21.535Z,16.70
2018-05-15T18:47:49.823Z,16.50
2018-05-15T18:50:18.154Z,16.60
2018-05-15T18:52:46.428Z,16.50
2018-05-15T18:55:15.536Z,16.20
2018-05-15T18:57:43.802Z,16.20
2018-05-15T19:00:12.092Z,16.30
2018-05-15T19:02:40.354Z,16.10
2018-05-15T19:05:08.617Z,16.10
2018-05-15T19:07:37.645Z,16.10
2018-05-15T19:10:05.921Z,16.00
2018-05-15T19:12:34.195Z,15.90
2018-05-15T19:15:02.486Z,15.90
2018-05-15T19:17:31.821Z,15.80
2018-05-15T19:20:00.099Z,15.80
2018-05-15T19:22:28.362Z,15.80
2018-05-15T19:24:56.649Z,15.80
2018-05-15T19:27:24.919Z,15.80
2018-05-15T19:29:53.178Z,15.70
2018-05-15T19:32:27.125Z,15.70
2018-05-15T19:34:56.816Z,15.60
2018-05-15T19:37:25.908Z,15.40
2018-05-15T19:39:56.701Z,15.40
2018-05-15T19:42:24.953Z,15.40
2018-05-15T19:44:53.253Z,15.30
2018-05-15T19:47:22.233Z,15.30
2018-05-15T19:49:50.518Z,15.30
2018-05-15T19:52:18.766Z,15.20
2018-05-15T19:54:47.823Z,15.20
2018-05-15T19:57:16.064Z,15.20
2018-05-15T19:59:44.343Z,15.20
2018-05-15T20:02:12.593Z,15.30
2018-05-15T20:04:40.865Z,15.30
2018-05-15T20:07:09.901Z,15.10
2018-05-15T20:09:39.084Z,15.10
2018-05-15T20:12:07.396Z,15.10
2018-05-15T20:14:35.661Z,14.90
2018-05-15T20:17:03.911Z,15.00
2018-05-15T20:19:32.167Z,15.10
2018-05-15T20:22:01.203Z,15.20
2018-05-15T20:24:29.500Z,15.20
2018-05-15T20:26:57.744Z,15.30
2018-05-15T20:29:26.099Z,15.30
2018-05-15T20:31:54.373Z,14.90
2018-05-15T20:34:22.629Z,14.50
2018-05-15T20:36:51.627Z,14.20
2018-05-15T20:39:20.645Z,14.10
2018-05-15T20:41:48.922Z,14.10
2018-05-15T20:44:17.251Z,14.10
2018-05-15T20:46:45.511Z,14.00
2018-05-15T20:49:13.787Z,13.80
2018-05-15T20:51:42.041Z,13.80
2018-05-15T20:54:10.311Z,13.70
2018-05-15T20:56:38.598Z,13.60
2018-05-15T20:59:06.859Z,13.50
2018-05-15T21:01:35.128Z,13.40
2018-05-15T21:04:03.396Z,13.30
2018-05-15T21:06:32.426Z,13.20
2018-05-15T21:09:00.680Z,13.20
2018-05-15T21:11:28.953Z,13.10
2018-05-15T21:13:57.217Z,13.00
2018-05-15T21:16:25.498Z,12.90
2018-05-15T21:18:53.771Z,13.00
2018-05-15T21:21:22.782Z,13.10
2018-05-15T21:23:51.050Z,13.10
2018-05-15T21:26:19.342Z,13.10
2018-05-15T21:28:47.607Z,13.10
2018-05-15T21:31:15.859Z,13.10
2018-05-15T21:33:44.899Z,13.20
2018-05-15T21:36:13.139Z,13.20
2018-05-15T21:38:41.387Z,13.20
2018-05-15T21:41:10.430Z,13.10
2018-05-15T21:43:38.695Z,13.10
2018-05-15T21:46:06.944Z,13.20
2018-05-15T21:48:35.964Z,13.00
2018-05-15T21:51:04.217Z,13.10
2018-05-15T21:53:32.481Z,13.00
2018-05-15T21:56:01.509Z,13.00
2018-05-15T21:58:29.774Z,13.00
2018-05-15T22:00:58.057Z,13.10
2018-05-15T22:03:26.325Z,13.10
2018-05-15T22:05:54.570Z,13.10
2018-05-15T22:08:22.840Z,13.10
2018-05-15T22:10:51.126Z,13.00
2018-05-15T22:13:32.992Z,13.00
2018-05-15T22:16:13.210Z,13.00
2018-05-15T22:18:53.915Z,12.80
2018-05-15T22:21:33.904Z,12.60
2018-05-15T22:24:02.634Z,12.60
2018-05-15T22:26:30.888Z,12.60
2018-05-15T22:28:59.722Z,12.50
2018-05-15T22:31:27.982Z,12.60
2018-05-15T22:33:56.246Z,12.40
2018-05-15T22:36:24.527Z,12.50
2018-05-15T22:38:52.850Z,12.50
2018-05-15T22:41:21.101Z,12.40
2018-05-15T22:43:49.391Z,12.60
2018-05-15T22:46:17.664Z,12.60
2018-05-15T22:48:45.923Z,12.50
2018-05-15T22:51:14.256Z,12.40
2018-05-15T22:53:42.549Z,12.40
2018-05-15T22:56:10.802Z,12.40
2018-05-15T22:58:39.064Z,12.50
2018-05-15T23:01:08.163Z,12.60
2018-05-15T23:03:37.194Z,12.50
2018-05-15T23:06:05.446Z,12.50
2018-05-15T23:08:33.709Z,12.50
2018-05-15T23:11:02.729Z,12.60
2018-05-15T23:13:30.990Z,12.60
2018-05-15T23:15:59.245Z,12.60
2018-05-15T23:18:28.307Z,12.50
2018-05-15T23:20:56.558Z,12.50
2018-05-15T23:23:24.813Z,12.70
2018-05-15T23:25:53.160Z,12.60
2018-05-15T23:28:21.431Z,12.60
2018-05-15T23:30:49.685Z,12.50
2018-05-15T23:33:17.950Z,12.60
2018-05-15T23:35:46.215Z,12.60
2018-05-15T23:38:14.463Z,12.50
2018-05-15T23:40:42.722Z,12.50
2018-05-15T23:43:12.260Z,12.50
2018-05-15T23:45:40.522Z,12.50
2018-05-15T23:48:09.572Z,12.60
2018-05-15T23:50:37.816Z,12.60
2018-05-15T23:53:06.073Z,12.60
2018-05-15T23:55:34.350Z,12.60
2018-05-15T23:58:02.615Z,12.70
